Minneapolis, Minnesota
Traffic Map
Current Weather Conditions
Minneapolis, Minnesota
Few Clouds
Few Clouds
84°
Feels Like: 84°
Wind Chill: 84° Ceiling: Unl
Heat Index: 84° Visibility: 10mi
Dew Point: 54° Wind: 18mph
Humidity: 35% Direction: 260° (W)
Pressure: 30.02in Gusts: 24mph
Raw Report DataKMSP 302253Z 26016G21KT 10SM FEW020 29/12 A3002 RMK AO2 SLP160 T02890122
Traffic Incident Summary
Active as of:
Severity:
Category:
InformationThere was an issue retrieving the traffic information for this location. Please try a different location or try again shortly.
Advertisements
Track Severe Weather on mobile